createdAt,value
2022-11-13T00:00:08.526Z,292.80
2022-11-13T00:02:35.056Z,310.00
2022-11-13T00:05:01.702Z,257.80
2022-11-13T00:07:28.273Z,254.70
2022-11-13T00:09:55.286Z,294.70
2022-11-13T00:12:21.828Z,338.00
2022-11-13T00:14:48.288Z,349.40
2022-11-13T00:17:14.785Z,323.10
2022-11-13T00:19:41.266Z,303.20
2022-11-13T00:22:07.773Z,300.70
2022-11-13T00:24:34.411Z,324.10
2022-11-13T00:27:00.959Z,278.00
2022-11-13T00:29:27.498Z,382.30
2022-11-13T00:31:54.145Z,340.30
2022-11-13T00:34:45.926Z,327.90
2022-11-13T00:37:07.156Z,352.00
2022-11-13T00:39:33.709Z,292.00
2022-11-13T00:42:00.353Z,341.20
2022-11-13T00:44:26.889Z,292.80
2022-11-13T00:46:53.316Z,348.90
2022-11-13T00:49:20.064Z,318.80
2022-11-13T00:51:46.711Z,335.70
2022-11-13T00:54:13.155Z,334.70
2022-11-13T00:56:39.675Z,461.40
2022-11-13T00:59:06.168Z,420.00
2022-11-13T01:01:32.908Z,414.90
2022-11-13T01:03:59.683Z,406.80
2022-11-13T01:06:27.817Z,410.10
2022-11-13T01:08:55.962Z,391.10
2022-11-13T01:11:26.005Z,196.20
2022-11-13T01:13:52.979Z,238.00
2022-11-13T01:16:23.212Z,261.10
2022-11-13T01:18:49.896Z,304.60
2022-11-13T01:21:21.736Z,312.30
2022-11-13T01:23:48.707Z,249.10
2022-11-13T01:26:19.671Z,275.80
2022-11-13T01:28:47.519Z,302.70
2022-11-13T01:31:17.647Z,295.20
2022-11-13T01:33:45.617Z,316.60
2022-11-13T01:36:15.312Z,310.40
2022-11-13T01:38:41.958Z,247.20
2022-11-13T01:41:20.317Z,241.30
2022-11-13T01:43:49.075Z,239.80
2022-11-13T01:46:37.012Z,210.80
2022-11-13T01:49:09.407Z,173.60
2022-11-13T01:51:49.561Z,192.50
2022-11-13T01:54:19.093Z,185.60
2022-11-13T01:56:45.701Z,226.00
2022-11-13T01:59:18.543Z,187.60
2022-11-13T02:01:45.316Z,221.10
2022-11-13T02:04:12.325Z,178.10
2022-11-13T02:06:57.674Z,179.90
2022-11-13T02:09:28.834Z,194.60
2022-11-13T02:11:56.579Z,164.40
2022-11-13T02:14:26.616Z,153.10
2022-11-13T02:16:58.969Z,175.80
2022-11-13T02:19:30.755Z,158.40
2022-11-13T02:22:13.772Z,184.00
2022-11-13T02:24:45.051Z,178.10
2022-11-13T02:27:36.634Z,180.70
2022-11-13T02:30:22.037Z,187.70
2022-11-13T02:32:54.614Z,175.00
2022-11-13T02:35:27.694Z,162.20
2022-11-13T02:37:56.272Z,174.40
2022-11-13T02:40:24.240Z,151.50
2022-11-13T02:42:50.809Z,152.20
2022-11-13T02:45:17.725Z,165.20
2022-11-13T02:47:44.671Z,180.80
2022-11-13T02:50:12.292Z,145.40
2022-11-13T02:52:38.904Z,215.70
2022-11-13T02:55:06.494Z,183.10
2022-11-13T02:57:33.336Z,184.80
2022-11-13T02:59:59.818Z,165.80
2022-11-13T03:02:26.252Z,162.20
2022-11-13T03:07:40.121Z,139.80
2022-11-13T03:10:07.534Z,133.10
2022-11-13T03:12:34.437Z,186.70
2022-11-13T03:15:01.123Z,165.10
2022-11-13T03:17:27.827Z,135.00
2022-11-13T03:19:54.340Z,139.00
2022-11-13T03:22:20.882Z,143.80
2022-11-13T03:24:47.560Z,159.50
2022-11-13T03:27:14.038Z,132.50
2022-11-13T03:29:40.599Z,169.30
2022-11-13T03:32:07.075Z,175.00
2022-11-13T03:34:34.425Z,149.70
2022-11-13T03:37:01.083Z,159.70
2022-11-13T03:39:27.666Z,214.60
2022-11-13T03:41:54.211Z,168.50
2022-11-13T03:44:20.656Z,205.80
2022-11-13T03:46:47.394Z,175.70
2022-11-13T03:49:13.863Z,210.20
2022-11-13T03:51:40.548Z,164.30
2022-11-13T03:54:07.097Z,146.40
2022-11-13T03:56:33.603Z,151.60
2022-11-13T03:59:00.104Z,169.30
2022-11-13T04:01:26.942Z,165.50
2022-11-13T04:03:53.539Z,150.50
2022-11-13T04:06:20.004Z,193.60
2022-11-13T04:08:46.642Z,155.30
2022-11-13T04:11:13.328Z,176.20
2022-11-13T04:13:39.928Z,144.60
2022-11-13T04:16:06.875Z,146.90
2022-11-13T04:18:33.463Z,182.70
2022-11-13T04:21:01.928Z,158.20
2022-11-13T04:23:29.244Z,139.10
2022-11-13T04:25:56.411Z,154.90
2022-11-13T04:28:23.176Z,123.70
2022-11-13T04:30:50.009Z,179.40
2022-11-13T04:33:16.512Z,156.60
2022-11-13T04:35:43.081Z,165.80
2022-11-13T04:38:09.623Z,150.50
2022-11-13T04:40:36.261Z,149.80
2022-11-13T04:43:03.722Z,159.90
2022-11-13T04:45:30.570Z,148.60
2022-11-13T04:47:57.314Z,130.00
2022-11-13T04:50:24.163Z,121.40
2022-11-13T04:52:50.670Z,141.40
2022-11-13T04:55:17.527Z,118.10
2022-11-13T04:57:44.079Z,124.20
2022-11-13T05:00:11.642Z,153.90
2022-11-13T05:02:38.141Z,156.90
2022-11-13T05:05:05.642Z,154.70
2022-11-13T05:07:32.591Z,156.10
2022-11-13T05:09:59.042Z,129.30
2022-11-13T05:12:25.772Z,147.30
2022-11-13T05:14:52.309Z,148.60
2022-11-13T05:17:18.847Z,185.60
2022-11-13T05:19:45.383Z,163.30
2022-11-13T05:22:11.963Z,146.70
2022-11-13T05:24:38.469Z,220.50
2022-11-13T05:27:04.980Z,190.40
2022-11-13T05:29:31.545Z,194.90
2022-11-13T05:31:58.040Z,227.30
2022-11-13T05:34:24.530Z,188.60
2022-11-13T05:36:51.004Z,219.30
2022-11-13T05:39:17.595Z,286.70
2022-11-13T05:41:44.232Z,245.10
2022-11-13T05:44:10.777Z,214.80
2022-11-13T05:46:37.626Z,280.00
2022-11-13T05:49:04.365Z,204.00
2022-11-13T05:51:33.410Z,257.20
2022-11-13T05:54:00.520Z,195.60
2022-11-13T05:56:33.460Z,201.80
2022-11-13T05:59:01.078Z,217.80
2022-11-13T06:01:41.198Z,199.60
2022-11-13T06:04:08.282Z,226.30
2022-11-13T06:06:35.456Z,195.50
2022-11-13T06:09:05.199Z,189.60
2022-11-13T06:11:32.197Z,157.00
2022-11-13T06:13:59.759Z,167.80
2022-11-13T06:16:34.590Z,178.40
2022-11-13T06:19:03.931Z,196.00
2022-11-13T06:21:32.793Z,160.30
2022-11-13T06:24:00.660Z,148.90
2022-11-13T06:26:33.809Z,125.60
2022-11-13T06:29:01.931Z,123.30
2022-11-13T06:31:31.066Z,155.70
2022-11-13T06:33:58.593Z,144.60
2022-11-13T06:36:28.371Z,115.20
2022-11-13T06:38:55.418Z,144.80
2022-11-13T06:41:25.619Z,139.50
2022-11-13T06:43:52.550Z,107.50
2022-11-13T06:46:24.204Z,88.70
2022-11-13T06:48:51.554Z,114.80
2022-11-13T06:51:21.163Z,126.80
2022-11-13T06:53:48.316Z,122.50
2022-11-13T06:56:15.278Z,108.30
2022-11-13T06:58:42.371Z,88.70
2022-11-13T07:01:14.370Z,90.40
2022-11-13T07:03:41.638Z,91.50
2022-11-13T07:06:10.996Z,101.30
2022-11-13T07:08:37.486Z,97.80
2022-11-13T07:11:03.916Z,104.90
2022-11-13T07:13:30.450Z,94.10
2022-11-13T07:16:09.428Z,115.80
2022-11-13T07:18:40.424Z,89.30
2022-11-13T07:21:10.617Z,88.50
2022-11-13T07:23:38.336Z,111.10
2022-11-13T07:26:04.962Z,131.30
2022-11-13T07:28:31.745Z,93.30
2022-11-13T07:30:59.369Z,138.50
2022-11-13T07:33:26.207Z,105.30
2022-11-13T07:35:57.151Z,81.90
2022-11-13T07:38:24.321Z,85.50
2022-11-13T07:40:51.374Z,73.80
2022-11-13T07:43:17.975Z,83.30
2022-11-13T07:45:44.740Z,92.10
2022-11-13T07:48:11.275Z,103.20
2022-11-13T07:50:39.083Z,100.80
2022-11-13T07:53:08.657Z,92.60
2022-11-13T07:55:36.062Z,106.20
2022-11-13T07:58:04.207Z,76.90
2022-11-13T08:00:32.596Z,74.50
2022-11-13T08:03:05.010Z,84.00
2022-11-13T08:05:31.491Z,98.40
2022-11-13T08:07:58.024Z,117.60
2022-11-13T08:10:24.639Z,80.90
2022-11-13T08:13:02.163Z,57.30
2022-11-13T08:15:29.819Z,67.70
2022-11-13T08:17:57.689Z,55.30
2022-11-13T08:20:26.172Z,46.70
2022-11-13T08:22:56.503Z,43.80
2022-11-13T08:25:23.246Z,43.60
2022-11-13T08:27:53.059Z,50.60
2022-11-13T08:30:20.119Z,50.50
2022-11-13T08:32:48.188Z,61.60
2022-11-13T08:35:19.238Z,60.60
2022-11-13T08:37:46.551Z,60.10
2022-11-13T08:40:13.536Z,49.90
2022-11-13T08:42:40.058Z,54.80
2022-11-13T08:45:07.393Z,46.60
2022-11-13T08:47:33.892Z,50.80
2022-11-13T08:50:00.315Z,39.30
2022-11-13T08:52:26.839Z,40.40
2022-11-13T08:54:53.281Z,44.60
2022-11-13T08:57:19.916Z,42.90
2022-11-13T08:59:46.456Z,50.50
2022-11-13T09:02:15.154Z,64.90
2022-11-13T09:04:42.415Z,47.60
2022-11-13T09:07:09.517Z,65.50
2022-11-13T09:09:36.120Z,61.90
2022-11-13T09:12:02.932Z,48.40
2022-11-13T09:14:29.779Z,57.00
2022-11-13T09:16:56.216Z,48.60
2022-11-13T09:19:22.693Z,48.60
2022-11-13T09:21:50.741Z,55.40
2022-11-13T09:24:17.247Z,54.10
2022-11-13T09:26:43.712Z,52.20
2022-11-13T09:29:10.243Z,52.80
2022-11-13T09:31:37.496Z,44.90
2022-11-13T09:34:04.441Z,48.40
2022-11-13T09:36:30.896Z,52.30
2022-11-13T09:38:57.382Z,54.80
2022-11-13T09:41:31.837Z,48.10
2022-11-13T09:44:19.675Z,47.10
2022-11-13T09:46:54.130Z,46.40
2022-11-13T09:49:34.785Z,47.30
2022-11-13T09:52:12.571Z,37.70
2022-11-13T09:54:39.049Z,49.30
2022-11-13T09:57:30.938Z,47.50
2022-11-13T10:00:01.176Z,44.10
2022-11-13T10:02:36.610Z,46.70
2022-11-13T10:05:21.483Z,46.30
2022-11-13T10:07:57.952Z,44.40
2022-11-13T10:10:55.238Z,43.40
2022-11-13T10:13:44.176Z,41.30
2022-11-13T10:16:35.190Z,46.00
2022-11-13T10:19:18.518Z,42.50
2022-11-13T10:22:25.994Z,42.60
2022-11-13T10:24:46.493Z,46.00
2022-11-13T10:27:14.694Z,48.00
2022-11-13T10:29:48.795Z,47.40
2022-11-13T10:32:23.134Z,46.20
2022-11-13T10:35:01.397Z,47.40
2022-11-13T10:37:45.292Z,47.00
2022-11-13T10:40:11.829Z,46.70
2022-11-13T10:42:41.232Z,45.90
2022-11-13T10:45:19.547Z,46.40
2022-11-13T10:48:04.125Z,50.00
2022-11-13T10:50:32.695Z,42.00
2022-11-13T10:52:59.538Z,43.40
2022-11-13T10:55:35.087Z,42.30
2022-11-13T10:58:04.617Z,44.80
2022-11-13T11:00:34.315Z,42.40
2022-11-13T11:03:01.576Z,38.30
2022-11-13T11:05:29.154Z,33.90
2022-11-13T11:07:57.242Z,29.40
2022-11-13T11:10:23.844Z,28.00
2022-11-13T11:13:02.059Z,26.20
2022-11-13T11:15:38.837Z,30.70
2022-11-13T11:18:18.799Z,27.60
2022-11-13T11:20:51.339Z,26.90
2022-11-13T11:23:56.403Z,28.60
2022-11-13T11:26:34.466Z,31.50
2022-11-13T11:29:13.548Z,30.60
2022-11-13T11:31:50.636Z,29.20
2022-11-13T11:34:26.647Z,26.90
2022-11-13T11:37:03.179Z,25.90
2022-11-13T11:39:54.873Z,25.30
2022-11-13T11:42:33.660Z,25.80
2022-11-13T11:45:21.812Z,26.90
2022-11-13T11:47:48.548Z,32.20
2022-11-13T11:50:18.627Z,26.30
2022-11-13T11:53:16.196Z,25.30
2022-11-13T11:55:54.815Z,28.60
2022-11-13T11:58:32.771Z,27.00
2022-11-13T12:01:17.589Z,26.40
2022-11-13T12:04:04.371Z,26.30
2022-11-13T12:06:49.270Z,28.00
2022-11-13T12:09:29.784Z,25.60
2022-11-13T12:12:11.020Z,21.00
2022-11-13T12:17:41.069Z,18.70
2022-11-13T12:20:30.850Z,19.30
2022-11-13T12:23:35.070Z,17.60
2022-11-13T12:26:10.625Z,18.10
2022-11-13T12:28:45.456Z,20.60
2022-11-13T12:31:36.162Z,21.30
2022-11-13T12:34:22.773Z,22.40
2022-11-13T12:36:51.369Z,23.70
2022-11-13T12:39:58.451Z,23.20
2022-11-13T12:42:54.787Z,26.10
2022-11-13T12:45:38.021Z,25.40
2022-11-13T12:48:26.147Z,24.00
2022-11-13T12:51:05.318Z,25.20
2022-11-13T12:53:51.602Z,28.50
2022-11-13T12:56:24.184Z,29.50
2022-11-13T12:59:34.113Z,28.40
2022-11-13T13:02:06.721Z,32.70
2022-11-13T13:04:50.346Z,33.50
2022-11-13T13:07:28.978Z,37.00
2022-11-13T13:10:15.866Z,30.70
2022-11-13T13:12:57.385Z,33.90
2022-11-13T13:15:46.248Z,30.40
2022-11-13T13:18:12.784Z,33.70
2022-11-13T13:20:41.480Z,28.60
2022-11-13T13:23:13.499Z,33.90
2022-11-13T13:25:41.031Z,29.90
2022-11-13T13:28:07.476Z,31.30
2022-11-13T13:30:48.763Z,28.60
2022-11-13T13:36:32.191Z,31.80
2022-11-13T13:39:03.237Z,29.50
2022-11-13T13:42:06.745Z,31.20
2022-11-13T13:44:54.577Z,26.80
2022-11-13T13:47:26.917Z,27.90
2022-11-13T13:49:54.008Z,26.60
2022-11-13T13:52:28.301Z,25.70
2022-11-13T13:54:55.909Z,21.90
2022-11-13T13:57:23.727Z,27.70
2022-11-13T13:59:51.168Z,24.60
2022-11-13T14:02:22.540Z,24.50
2022-11-13T14:04:51.704Z,26.90
2022-11-13T14:07:28.423Z,29.40
2022-11-13T14:10:16.597Z,27.10
2022-11-13T14:12:45.391Z,26.40
2022-11-13T14:15:32.677Z,24.20
2022-11-13T14:18:06.653Z,27.10
2022-11-13T14:20:52.063Z,23.00
2022-11-13T14:23:25.925Z,25.30
2022-11-13T14:25:52.794Z,27.90
2022-11-13T14:28:23.194Z,27.20
2022-11-13T14:30:59.232Z,32.20
2022-11-13T14:33:32.758Z,34.00
2022-11-13T14:36:00.168Z,32.40
2022-11-13T14:38:31.565Z,35.40
2022-11-13T14:43:31.118Z,38.10
2022-11-13T14:46:01.938Z,39.20
2022-11-13T14:48:31.083Z,95.80
2022-11-13T14:51:02.996Z,59.90
2022-11-13T14:53:42.211Z,40.70
2022-11-13T14:56:11.547Z,40.40
2022-11-13T14:58:44.047Z,42.00
2022-11-13T15:01:17.725Z,44.30
2022-11-13T15:03:49.084Z,51.80
2022-11-13T15:06:24.219Z,43.20
2022-11-13T15:08:55.435Z,43.10
2022-11-13T15:11:24.303Z,41.20
2022-11-13T15:13:50.797Z,45.90
2022-11-13T15:16:24.911Z,79.60
2022-11-13T15:19:01.687Z,96.90
2022-11-13T15:21:28.943Z,70.10
2022-11-13T15:23:55.485Z,61.10
2022-11-13T15:26:22.325Z,57.20
2022-11-13T15:28:49.134Z,77.80
2022-11-13T15:31:20.732Z,62.80
2022-11-13T15:33:48.190Z,71.30
2022-11-13T15:36:15.034Z,68.80
2022-11-13T15:38:41.492Z,61.60
2022-11-13T15:41:14.476Z,64.90
2022-11-13T15:43:48.300Z,73.60
2022-11-13T15:46:16.541Z,88.40
2022-11-13T15:48:46.970Z,89.20
2022-11-13T15:51:24.228Z,109.80
2022-11-13T15:53:56.023Z,98.60
2022-11-13T15:56:24.879Z,99.60
2022-11-13T15:58:51.655Z,101.50
2022-11-13T16:01:19.485Z,115.20
2022-11-13T16:03:46.267Z,114.70
2022-11-13T16:06:19.149Z,116.40
2022-11-13T16:08:46.615Z,130.40
2022-11-13T16:11:15.420Z,129.80
2022-11-13T16:13:42.468Z,140.90
2022-11-13T16:16:37.012Z,131.60
2022-11-13T16:19:09.320Z,222.50
2022-11-13T16:21:35.860Z,250.20
2022-11-13T16:24:02.400Z,262.00
2022-11-13T16:26:28.935Z,281.90
2022-11-13T16:31:42.086Z,211.40
2022-11-13T16:34:08.557Z,181.00
2022-11-13T16:36:35.003Z,175.50
2022-11-13T16:39:01.904Z,169.80
2022-11-13T16:41:28.439Z,175.70
2022-11-13T16:43:54.984Z,433.70
2022-11-13T16:46:34.745Z,309.70
2022-11-13T16:49:01.270Z,276.70
2022-11-13T16:51:27.907Z,279.80
2022-11-13T16:53:54.446Z,263.20
2022-11-13T16:56:25.198Z,274.20
2022-11-13T16:58:51.653Z,234.70
2022-11-13T17:01:20.115Z,200.40
2022-11-13T17:03:46.642Z,236.30
2022-11-13T17:06:29.320Z,333.90
2022-11-13T17:08:58.668Z,215.50
2022-11-13T17:11:28.307Z,226.40
2022-11-13T17:14:00.341Z,206.70
2022-11-13T17:16:28.647Z,210.60
2022-11-13T17:18:55.689Z,196.30
2022-11-13T17:21:24.515Z,175.00
2022-11-13T17:23:58.233Z,173.60
2022-11-13T17:26:25.933Z,172.80
2022-11-13T17:28:53.191Z,154.00
2022-11-13T17:31:21.166Z,160.40
2022-11-13T17:33:48.218Z,167.50
2022-11-13T17:36:14.855Z,163.50
2022-11-13T17:38:41.492Z,179.20
2022-11-13T17:41:10.945Z,175.20
2022-11-13T17:43:39.052Z,200.80
2022-11-13T17:46:07.559Z,271.40
2022-11-13T17:48:34.711Z,250.60
2022-11-13T17:51:04.742Z,243.80
2022-11-13T17:53:31.955Z,216.50
2022-11-13T17:56:01.493Z,208.80
2022-11-13T17:58:29.155Z,214.20
2022-11-13T18:01:04.326Z,201.20
2022-11-13T18:03:31.725Z,204.30
2022-11-13T18:05:58.493Z,209.80
2022-11-13T18:08:25.034Z,241.80
2022-11-13T18:10:51.618Z,318.30
2022-11-13T18:13:18.104Z,239.00
2022-11-13T18:15:44.644Z,263.60
2022-11-13T18:18:11.491Z,252.70
2022-11-13T18:20:40.589Z,246.50
2022-11-13T18:23:07.477Z,241.40
2022-11-13T18:25:39.650Z,256.10
2022-11-13T18:28:06.552Z,257.20
2022-11-13T18:30:33.089Z,289.50
2022-11-13T18:32:59.634Z,300.10
2022-11-13T18:35:26.171Z,333.30
2022-11-13T18:37:52.634Z,298.10
2022-11-13T18:40:19.449Z,338.80
2022-11-13T18:42:45.904Z,322.60
2022-11-13T18:45:12.526Z,228.60
2022-11-13T18:47:39.061Z,295.10
2022-11-13T18:50:05.802Z,250.60
2022-11-13T18:52:32.266Z,289.20
2022-11-13T18:54:58.981Z,325.50
2022-11-13T18:57:25.511Z,228.10
2022-11-13T18:59:52.060Z,305.80
2022-11-13T19:02:18.647Z,274.40
2022-11-13T19:04:45.231Z,275.40
2022-11-13T19:07:11.883Z,250.50
2022-11-13T19:09:38.616Z,278.90
2022-11-13T19:12:05.844Z,262.50
2022-11-13T19:14:34.024Z,237.40
2022-11-13T19:17:00.484Z,220.60
2022-11-13T19:19:27.010Z,205.40
2022-11-13T19:21:55.212Z,239.60
2022-11-13T19:24:22.132Z,209.00
2022-11-13T19:26:48.785Z,197.50
2022-11-13T19:29:15.310Z,233.60
2022-11-13T19:31:41.850Z,234.20
2022-11-13T19:34:09.853Z,252.00
2022-11-13T19:36:36.572Z,224.50
2022-11-13T19:39:03.917Z,281.60
2022-11-13T19:41:30.864Z,243.30
2022-11-13T19:43:58.836Z,234.40
2022-11-13T19:46:25.373Z,207.10
2022-11-13T19:48:52.863Z,237.90
2022-11-13T19:51:22.737Z,215.40
2022-11-13T19:53:59.739Z,231.20
2022-11-13T19:56:27.708Z,241.90
2022-11-13T19:58:54.556Z,193.50
2022-11-13T20:01:24.296Z,185.90
2022-11-13T20:03:59.459Z,222.60
2022-11-13T20:06:27.929Z,191.30
2022-11-13T20:08:54.423Z,217.30
2022-11-13T20:11:21.120Z,238.20
2022-11-13T20:13:47.738Z,244.40
2022-11-13T20:16:15.921Z,240.70
2022-11-13T20:18:43.854Z,221.90
2022-11-13T20:21:10.631Z,207.10
2022-11-13T20:23:37.570Z,183.90
2022-11-13T20:26:07.060Z,208.50
2022-11-13T20:28:34.222Z,169.30
2022-11-13T20:31:15.757Z,188.80
2022-11-13T20:36:09.019Z,193.50
2022-11-13T20:38:35.615Z,291.20
2022-11-13T20:41:05.947Z,232.90
2022-11-13T20:43:33.097Z,226.30
2022-11-13T20:46:13.569Z,274.90
2022-11-13T20:48:40.413Z,238.20
2022-11-13T20:51:19.057Z,229.30
2022-11-13T20:53:45.779Z,278.20
2022-11-13T20:56:12.936Z,233.30
2022-11-13T20:58:39.757Z,368.80
2022-11-13T21:01:08.174Z,319.70
2022-11-13T21:03:40.213Z,346.00
2022-11-13T21:06:10.091Z,336.50
2022-11-13T21:08:37.193Z,327.00
2022-11-13T21:11:48.685Z,276.50
2022-11-13T21:14:59.971Z,238.40
2022-11-13T21:18:10.443Z,175.50
2022-11-13T21:20:38.725Z,159.70
2022-11-13T21:23:05.175Z,178.20
2022-11-13T21:25:31.900Z,139.10
2022-11-13T21:27:58.334Z,187.90
2022-11-13T21:30:24.948Z,178.00
2022-11-13T21:32:51.653Z,288.30
2022-11-13T21:35:22.324Z,218.70
2022-11-13T21:37:49.528Z,216.30
2022-11-13T21:40:16.072Z,183.40
2022-11-13T21:42:43.098Z,212.00
2022-11-13T21:45:10.459Z,189.90
2022-11-13T21:47:37.368Z,218.20
2022-11-13T21:50:05.629Z,200.30
2022-11-13T21:52:32.441Z,204.80
2022-11-13T21:54:58.974Z,208.10
2022-11-13T21:57:25.510Z,202.80
2022-11-13T21:59:52.220Z,178.70
2022-11-13T22:02:18.697Z,184.90
2022-11-13T22:04:45.265Z,151.90
2022-11-13T22:07:11.759Z,153.70
2022-11-13T22:09:38.282Z,164.20
2022-11-13T22:12:04.843Z,161.70
2022-11-13T22:14:31.279Z,164.90
2022-11-13T22:16:57.924Z,142.80
2022-11-13T22:19:28.411Z,167.00
2022-11-13T22:21:56.837Z,168.00
2022-11-13T22:24:23.294Z,142.00
2022-11-13T22:26:49.809Z,130.10
2022-11-13T22:29:16.233Z,133.00
2022-11-13T22:31:42.787Z,126.90
2022-11-13T22:34:09.245Z,145.90
2022-11-13T22:36:37.199Z,154.10
2022-11-13T22:39:05.072Z,139.00
2022-11-13T22:41:34.122Z,129.10
2022-11-13T22:44:06.853Z,114.10
2022-11-13T22:46:35.654Z,124.80
2022-11-13T22:49:04.668Z,131.50
2022-11-13T22:51:36.969Z,113.70
2022-11-13T22:54:07.278Z,129.00
2022-11-13T22:56:34.919Z,132.90
2022-11-13T22:59:03.895Z,181.70
2022-11-13T23:01:32.711Z,140.80
2022-11-13T23:04:05.371Z,128.90
2022-11-13T23:06:34.301Z,127.30
2022-11-13T23:09:01.729Z,121.90
2022-11-13T23:11:35.038Z,128.20
2022-11-13T23:14:03.433Z,122.60
2022-11-13T23:16:30.863Z,131.20
2022-11-13T23:18:59.247Z,148.70
2022-11-13T23:21:27.547Z,132.40
2022-11-13T23:23:54.774Z,170.70
2022-11-13T23:26:22.239Z,146.30
2022-11-13T23:28:49.239Z,152.10
2022-11-13T23:31:16.135Z,156.60
2022-11-13T23:33:42.676Z,165.50
2022-11-13T23:36:11.640Z,163.60
2022-11-13T23:38:38.539Z,128.60
2022-11-13T23:41:05.257Z,147.80
2022-11-13T23:44:07.104Z,192.20
2022-11-13T23:46:18.200Z,169.00
2022-11-13T23:48:44.735Z,156.70
2022-11-13T23:51:11.378Z,201.10
2022-11-13T23:53:38.021Z,189.80
2022-11-13T23:56:05.671Z,245.10
2022-11-13T23:58:32.885Z,197.20
